Time;durP1;ratioP1;P1;durP2;ratioP2;P2;SDS_P1;SDS_P2;PMS_P1;PMS_P2;Temp;Humidity;BMP_temperature;BMP_pressure;BME280_temperature;BME280_humidity;BME280_pressure;Samples;Min_cycle;Max_cycle;Signal;HPM_P1;HPM_P2
2021/04/06 00:01:48;;;;;;;8.20;2.05;;;;;;;0.51;76.47;99327.55;1688315;81;26697;-64
2021/04/06 00:04:25;;;;;;;9.23;2.00;;;;;;;0.54;76.56;99341.98;1706923;82;26065;-64
2021/04/06 00:07:02;;;;;;;16.32;2.77;;;;;;;0.56;76.62;99342.36;1672160;82;26802;-64
2021/04/06 00:09:34;;;;;;;6.78;1.75;;;;;;;0.60;76.58;99338.75;1678190;84;26250;-64
2021/04/06 00:12:05;;;;;;;12.80;3.62;;;;;;;0.65;76.69;99349.18;1651213;82;26549;-64
2021/04/06 00:14:35;;;;;;;9.43;2.08;;;;;;;0.65;76.66;99350.05;1679508;84;26296;-64
2021/04/06 00:17:08;;;;;;;9.83;1.75;;;;;;;0.70;76.56;99353.03;1690793;82;26196;-63
2021/04/06 00:19:40;;;;;;;11.30;2.20;;;;;;;0.71;76.51;99354.31;1697406;83;25910;-64
2021/04/06 00:22:10;;;;;;;12.47;2.12;;;;;;;0.73;76.39;99353.82;1699347;81;26048;-63
2021/04/06 00:24:43;;;;;;;13.00;1.92;;;;;;;0.74;76.27;99361.28;1718655;81;27497;-64
2021/04/06 00:27:25;;;;;;;12.25;1.70;;;;;;;0.74;76.26;99352.91;1725054;81;26023;-63
2021/04/06 00:29:58;;;;;;;7.17;1.60;;;;;;;0.72;76.16;99364.41;1700057;82;26434;-63
2021/04/06 00:32:27;;;;;;;17.10;2.40;;;;;;;0.70;76.15;99371.48;1714059;81;25847;-64
2021/04/06 00:34:59;;;;;;;15.25;2.22;;;;;;;0.68;76.10;99376.80;1691058;82;25995;-64
2021/04/06 00:37:29;;;;;;;13.40;1.77;;;;;;;0.65;76.06;99369.83;1693732;81;28312;-64
2021/04/06 00:40:10;;;;;;;13.55;1.98;;;;;;;0.63;76.08;99373.41;1700641;82;25937;-64
2021/04/06 00:42:41;;;;;;;;;;;;;;;0.62;76.14;99378.26;1723340;81;26006;-63
2021/04/06 00:45:17;;;;;;;11.20;1.98;;;;;;;0.62;76.25;99375.63;1698430;82;25827;-64
2021/04/06 00:47:58;;;;;;;4.70;1.55;;;;;;;0.57;76.35;99366.50;1711833;82;25802;-63
2021/04/06 00:50:36;;;;;;;14.53;2.27;;;;;;;0.57;76.32;99394.64;1651319;84;28044;-64
2021/04/06 00:53:03;;;;;;;13.08;3.10;;;;;;;0.53;76.47;99389.88;1635633;84;25911;-63
2021/04/06 00:55:36;;;;;;;18.98;2.45;;;;;;;0.52;76.50;99388.60;1694995;83;25918;-63
2021/04/06 00:58:14;;;;;;;18.92;3.85;;;;;;;0.53;76.43;99391.66;1714609;81;25771;-63
2021/04/06 01:00:43;;;;;;;16.17;2.08;;;;;;;0.54;76.45;99397.34;1690192;83;25935;-64
2021/04/06 01:03:17;;;;;;;15.83;2.08;;;;;;;0.55;76.42;99402.58;1690513;81;28645;-63
2021/04/06 01:06:06;;;;;;;14.93;2.52;;;;;;;0.59;76.52;99413.92;1702164;82;25832;-63
2021/04/06 01:08:37;;;;;;;14.23;2.12;;;;;;;0.60;76.50;99407.30;1696794;81;25823;-64
2021/04/06 01:11:06;;;;;;;12.95;2.62;;;;;;;0.61;76.50;99409.48;1722823;81;25784;-64
2021/04/06 01:13:35;;;;;;;17.15;2.65;;;;;;;0.59;76.53;99412.61;1707387;81;25697;-63
2021/04/06 01:16:05;;;;;;;10.23;2.20;;;;;;;0.57;76.56;99413.09;1726550;81;25863;-63
2021/04/06 01:18:34;;;;;;;11.73;2.75;;;;;;;0.56;76.65;99409.59;1721968;81;26730;-63
2021/04/06 01:21:10;;;;;;;15.63;2.87;;;;;;;0.57;76.71;99417.05;1700555;81;26283;-63
2021/04/06 01:23:39;;;;;;;19.07;3.15;;;;;;;0.55;76.69;99414.44;1721943;81;25985;-64
2021/04/06 01:26:12;;;;;;;12.10;2.58;;;;;;;0.56;76.75;99425.41;1705967;81;26380;-63
2021/04/06 01:28:40;;;;;;;15.78;3.17;;;;;;;0.56;76.79;99424.54;1698438;81;27858;-64
2021/04/06 01:31:09;;;;;;;13.70;3.20;;;;;;;0.58;76.88;99431.97;1696228;81;26144;-64
2021/04/06 01:33:38;;;;;;;13.38;2.22;;;;;;;0.58;76.90;99438.11;1728124;81;25817;-64
2021/04/06 01:36:09;;;;;;;19.52;2.85;;;;;;;0.59;77.00;99432.38;1705598;81;26251;-64
2021/04/06 01:38:40;;;;;;;12.82;2.87;;;;;;;0.61;77.03;99432.77;1700406;81;25837;-64
2021/04/06 01:41:07;;;;;;;9.78;2.50;;;;;;;0.62;77.05;99437.59;1692985;81;27944;-64
2021/04/06 01:43:40;;;;;;;12.20;2.52;;;;;;;0.63;76.98;99441.51;1721391;81;25881;-63
2021/04/06 01:46:20;;;;;;;12.70;2.27;;;;;;;0.65;77.11;99449.38;1708603;81;25946;-63
2021/04/06 01:48:49;;;;;;;14.07;2.80;;;;;;;0.65;76.95;99441.47;1690516;83;25888;-64
2021/04/06 01:51:20;;;;;;;10.25;2.20;;;;;;;0.65;76.76;99454.66;1682331;82;25871;-63
2021/04/06 01:53:50;;;;;;;12.58;2.42;;;;;;;0.65;76.56;99444.97;1683944;82;27557;-64
2021/04/06 01:56:29;;;;;;;14.83;2.50;;;;;;;0.63;76.63;99445.91;1689608;82;25823;-63
2021/04/06 01:59:03;;;;;;;15.88;2.33;;;;;;;0.62;76.57;99447.68;1664612;83;25955;-63
2021/04/06 02:01:28;;;;;;;22.75;3.35;;;;;;;0.63;76.53;99452.50;1669804;83;26204;-63
2021/04/06 02:04:01;;;;;;;19.98;2.52;;;;;;;0.63;76.50;99443.27;1669944;83;26676;-64
2021/04/06 02:06:32;;;;;;;9.95;2.45;;;;;;;0.61;76.46;99444.63;1657262;83;27876;-63
2021/04/06 02:09:03;;;;;;;18.73;3.08;;;;;;;0.62;76.45;99451.63;1640587;83;26405;-64
2021/04/06 02:11:33;;;;;;;;;;;;;;;0.63;76.44;99452.50;1650437;85;25864;-64
2021/04/06 02:14:14;;;;;;;21.62;5.25;;;;;;;0.61;76.53;99447.27;1668710;83;26071;-63
2021/04/06 02:16:49;;;;;;;103.35;20.00;;;;;;;0.59;76.45;99446.88;1651681;83;25825;-63
2021/04/06 02:19:38;;;;;;;76.20;20.60;;;;;;;0.59;76.48;99453.47;1643664;85;27863;-64
2021/04/06 02:22:16;;;;;;;28.52;9.15;;;;;;;0.58;76.52;99448.66;1646938;83;26649;-63
2021/04/06 02:24:51;;;;;;;13.88;4.15;;;;;;;0.58;76.50;99457.02;1644726;85;25904;-63
2021/04/06 02:27:30;;;;;;;19.27;6.08;;;;;;;0.57;76.33;99460.09;1639011;84;25962;-64
2021/04/06 02:30:01;;;;;;;25.25;2.77;;;;;;;0.57;76.46;99462.73;1647097;84;26594;-63
2021/04/06 02:32:33;;;;;;;13.15;2.47;;;;;;;0.57;76.41;99479.00;1649216;84;27962;-63
2021/04/06 02:35:13;;;;;;;17.30;2.40;;;;;;;0.55;76.21;99468.94;1647987;84;26241;-63
2021/04/06 02:37:44;;;;;;;13.83;2.47;;;;;;;0.52;76.28;99458.02;1645510;85;25912;-64
2021/04/06 02:40:22;;;;;;;10.48;2.02;;;;;;;0.53;76.05;99481.29;1681202;82;35540;-64
2021/04/06 02:42:58;;;;;;;9.05;2.33;;;;;;;0.53;75.89;99456.24;1687618;82;26990;-64
2021/04/06 02:45:31;;;;;;;14.70;2.20;;;;;;;0.51;75.88;99468.14;1655110;85;26328;-63
2021/04/06 02:48:13;;;;;;;16.65;2.55;;;;;;;0.52;75.64;99471.20;1656425;83;26174;-63
2021/04/06 02:50:44;;;;;;;19.02;2.58;;;;;;;0.49;75.61;99465.98;1625963;85;25836;-63
2021/04/06 02:53:17;;;;;;;8.53;2.17;;;;;;;0.48;75.51;99490.61;1643201;83;25906;-64
2021/04/06 02:55:45;;;;;;;18.23;2.05;;;;;;;0.47;75.58;99473.06;1682541;83;26452;-63
2021/04/06 02:58:15;;;;;;;13.50;2.22;;;;;;;0.45;75.61;99479.27;1703982;82;27865;-64
2021/04/06 03:00:44;;;;;;;9.68;2.12;;;;;;;0.42;75.56;99484.60;1689914;82;26542;-63
2021/04/06 03:03:24;;;;;;;13.43;2.58;;;;;;;0.40;75.54;99489.03;1705663;82;26402;-63
2021/04/06 03:06:12;;;;;;;13.93;2.60;;;;;;;0.38;75.63;99496.11;1689290;82;25910;-63
2021/04/06 03:08:43;;;;;;;17.75;2.37;;;;;;;0.34;75.65;99488.71;1687289;82;26451;-63
2021/04/06 03:11:12;;;;;;;15.15;2.87;;;;;;;0.31;75.67;99497.55;1687738;82;26042;-63
2021/04/06 03:13:44;;;;;;;15.93;2.25;;;;;;;0.29;75.52;99490.58;1703460;82;26605;-63
2021/04/06 03:16:13;;;;;;;15.28;3.22;;;;;;;0.26;75.57;99504.68;1667327;83;26605;-63
2021/04/06 03:18:41;;;;;;;13.45;3.00;;;;;;;0.24;75.57;99500.34;1688277;83;26280;-63
2021/04/06 03:21:11;;;;;;;13.08;2.92;;;;;;;0.19;75.56;99507.02;1703801;82;25864;-63
2021/04/06 03:23:39;;;;;;;7.95;2.33;;;;;;;0.17;75.58;99512.77;1684697;82;27770;-63
2021/04/06 03:26:08;;;;;;;22.07;2.70;;;;;;;0.11;75.49;99506.30;1702658;82;26203;-63
2021/04/06 03:28:39;;;;;;;23.02;3.02;;;;;;;0.09;75.50;99521.27;1694177;82;25885;-63
2021/04/06 03:31:16;;;;;;;8.23;2.52;;;;;;;0.07;75.38;99522.19;1716373;82;26711;-63
2021/04/06 03:33:49;;;;;;;15.80;2.62;;;;;;;0.03;75.49;99513.48;1681971;82;25874;-63
2021/04/06 03:36:31;;;;;;;14.13;2.02;;;;;;;0.03;75.44;99519.20;1685490;83;26134;-63
2021/04/06 03:39:04;;;;;;;9.13;3.10;;;;;;;-0.02;75.29;99521.50;1705211;81;25887;-63
2021/04/06 03:41:35;;;;;;;15.72;2.35;;;;;;;-0.05;75.34;99528.59;1677386;83;25914;-63
2021/04/06 03:44:09;;;;;;;10.75;2.60;;;;;;;-0.08;75.37;99530.83;1679331;82;25854;-63
2021/04/06 03:46:41;;;;;;;10.23;2.52;;;;;;;-0.09;75.46;99526.91;1690746;83;25888;-62
2021/04/06 03:49:22;;;;;;;;;;;;;;;-0.12;75.36;99530.91;1688849;82;27904;-63
2021/04/06 03:51:59;;;;;;;16.50;2.70;;;;;;;-0.15;75.38;99529.66;1690103;82;25927;-63
2021/04/06 03:54:43;;;;;;;13.13;2.83;;;;;;;-0.19;75.49;99533.23;1715459;82;25917;-63
2021/04/06 03:57:27;;;;;;;17.32;3.08;;;;;;;-0.22;75.49;99526.70;1689395;82;26215;-63
2021/04/06 03:59:55;;;;;;;13.53;2.87;;;;;;;-0.26;75.47;99531.61;1709164;82;25922;-63
2021/04/06 04:02:24;;;;;;;19.15;3.12;;;;;;;-0.28;75.40;99525.50;1675812;83;26506;-63
2021/04/06 04:04:55;;;;;;;16.15;3.12;;;;;;;-0.30;75.42;99532.55;1670653;82;26209;-63
2021/04/06 04:07:24;;;;;;;10.38;2.27;;;;;;;-0.31;75.49;99531.69;1683685;82;26243;-64
2021/04/06 04:09:51;;;;;;;18.92;3.08;;;;;;;-0.32;75.49;99538.30;1700639;82;25981;-63
2021/04/06 04:12:19;;;;;;;17.37;2.80;;;;;;;-0.34;75.48;99540.51;1654161;84;26379;-64
2021/04/06 04:14:47;;;;;;;12.43;2.60;;;;;;;-0.32;75.47;99535.66;1671308;82;27480;-63
2021/04/06 04:17:15;;;;;;;13.00;3.20;;;;;;;-0.32;75.60;99543.56;1653486;84;26598;-63
2021/04/06 04:19:44;;;;;;;10.23;2.30;;;;;;;-0.35;75.57;99536.58;1647372;84;25926;-63
2021/04/06 04:22:12;;;;;;;19.00;3.00;;;;;;;-0.37;75.55;99533.98;1661049;83;26061;-63
2021/04/06 04:24:39;;;;;;;22.17;3.33;;;;;;;-0.39;75.58;99541.03;1650128;85;25875;-63
2021/04/06 04:27:09;;;;;;;16.32;3.02;;;;;;;-0.39;75.56;99536.21;1639627;84;27821;-63
2021/04/06 04:29:37;;;;;;;12.10;3.27;;;;;;;-0.40;75.60;99541.92;1649116;84;25892;-62
2021/04/06 04:32:13;;;;;;;14.45;3.60;;;;;;;-0.41;75.57;99544.58;1689815;82;25825;-63
2021/04/06 04:34:41;;;;;;;15.48;3.22;;;;;;;-0.44;75.72;99539.37;1678457;82;26092;-63
2021/04/06 04:37:09;;;;;;;13.05;2.40;;;;;;;-0.46;75.73;99540.71;1710581;82;25809;-63
2021/04/06 04:39:37;;;;;;;18.73;4.33;;;;;;;-0.47;75.73;99537.66;1683499;82;28408;-63
2021/04/06 04:42:07;;;;;;;14.18;2.95;;;;;;;-0.46;75.74;99545.11;1688733;82;25915;-63
2021/04/06 04:44:35;;;;;;;14.98;3.58;;;;;;;-0.47;75.72;99546.87;1680382;82;26679;-63
2021/04/06 04:47:03;;;;;;;17.17;3.87;;;;;;;-0.47;75.71;99555.22;1695025;82;26049;-63
2021/04/06 04:49:33;;;;;;;15.20;3.40;;;;;;;-0.50;75.72;99546.92;1684802;82;26755;-62
2021/04/06 04:52:00;;;;;;;11.65;2.90;;;;;;;-0.49;75.78;99555.23;1701843;82;27474;-61
2021/04/06 04:54:28;;;;;;;10.93;2.50;;;;;;;-0.47;75.77;99552.13;1697052;82;26308;-62
2021/04/06 04:56:56;;;;;;;27.87;5.40;;;;;;;-0.48;75.77;99564.88;1703645;82;25958;-61
2021/04/06 04:59:24;;;;;;;12.82;2.75;;;;;;;-0.51;75.84;99553.52;1665147;83;26159;-62
2021/04/06 05:01:55;;;;;;;14.58;2.98;;;;;;;-0.51;75.88;99564.05;1662290;84;25882;-62
2021/04/06 05:04:22;;;;;;;;;;;;;;;-0.55;75.72;99563.23;1646334;86;28569;-62
2021/04/06 05:06:50;;;;;;;8.95;3.00;;;;;;;-0.59;75.80;99567.25;1655640;84;25922;-62
2021/04/06 05:09:18;;;;;;;10.40;3.37;;;;;;;-0.63;75.85;99561.16;1658628;86;25879;-62
2021/04/06 05:11:46;;;;;;;19.62;3.58;;;;;;;-0.64;75.72;99558.55;1651507;84;25769;-62
2021/04/06 05:14:16;;;;;;;10.15;3.17;;;;;;;-0.66;75.81;99560.77;1685602;81;25827;-62
2021/04/06 05:16:45;;;;;;;;;;;;;;;-0.66;75.85;99584.45;1689106;82;26020;-62
2021/04/06 05:19:14;;;;;;;12.93;3.52;;;;;;;-0.67;75.89;99568.23;1695533;82;26181;-62
2021/04/06 05:21:41;;;;;;;16.50;4.05;;;;;;;-0.64;75.98;99560.74;1685207;82;25876;-62
2021/04/06 05:24:12;;;;;;;11.12;2.67;;;;;;;-0.59;75.94;99573.83;1687785;82;26223;-62
2021/04/06 05:26:40;;;;;;;8.28;3.35;;;;;;;-0.55;75.88;99559.73;1690889;82;25840;-62
2021/04/06 05:29:08;;;;;;;14.90;5.03;;;;;;;-0.52;75.87;99555.28;1695631;82;27982;-63
2021/04/06 05:31:36;;;;;;;14.93;3.45;;;;;;;-0.48;75.90;99559.61;1694054;83;26518;-62
2021/04/06 05:34:06;;;;;;;12.75;4.08;;;;;;;-0.43;75.84;99562.16;1693988;83;25742;-62
2021/04/06 05:36:34;;;;;;;16.32;3.52;;;;;;;-0.40;75.90;99566.94;1683546;83;33009;-62
2021/04/06 05:39:03;;;;;;;14.80;3.60;;;;;;;-0.39;75.96;99572.63;1706535;82;25807;-62
2021/04/06 05:41:31;;;;;;;19.05;2.85;;;;;;;-0.36;76.05;99583.55;1696163;82;27474;-62
2021/04/06 05:44:04;;;;;;;18.75;4.80;;;;;;;-0.34;75.97;99586.58;1700255;82;26553;-62
2021/04/06 05:46:39;;;;;;;17.00;4.35;;;;;;;-0.29;75.91;99577.73;1663517;84;25849;-62
2021/04/06 05:49:11;;;;;;;17.10;4.35;;;;;;;-0.27;75.89;99576.81;1689138;81;25928;-62
2021/04/06 05:51:42;;;;;;;14.13;4.00;;;;;;;-0.24;75.90;99583.80;1653637;84;26404;-63
2021/04/06 05:54:14;;;;;;;13.85;4.35;;;;;;;-0.18;75.80;99586.33;1649705;84;27484;-65
2021/04/06 05:56:43;;;;;;;20.27;5.50;;;;;;;-0.18;75.47;99580.61;1651717;85;25846;-63
2021/04/06 05:59:11;;;;;;;14.60;4.40;;;;;;;-0.15;75.58;99586.27;1648005;84;25839;-65
2021/04/06 06:01:42;;;;;;;12.47;3.55;;;;;;;-0.12;75.60;99583.14;1661948;84;26133;-66
2021/04/06 06:04:15;;;;;;;22.70;5.55;;;;;;;-0.06;75.66;99579.53;1657718;84;25902;-64
2021/04/06 06:06:43;;;;;;;13.25;3.05;;;;;;;-0.04;75.52;99588.28;1634115;85;26762;-64
2021/04/06 06:09:13;;;;;;;25.88;3.47;;;;;;;-0.07;75.50;99592.28;1670197;84;25802;-64
2021/04/06 06:12:04;;;;;;;20.32;3.83;;;;;;;-0.11;75.47;99578.74;1626645;85;25961;-66
2021/04/06 06:14:38;;;;;;;12.00;2.95;;;;;;;-0.13;75.18;99583.17;1625998;85;25943;-66
2021/04/06 06:17:25;;;;;;;17.27;4.25;;;;;;;-0.16;75.23;99573.55;1654132;83;26625;-65
2021/04/06 06:19:56;;;;;;;19.85;4.37;;;;;;;-0.15;75.21;99574.42;1668797;83;27935;-66
2021/04/06 06:22:33;;;;;;;18.73;4.00;;;;;;;-0.16;75.31;99580.14;1657769;85;25881;-67
2021/04/06 06:25:09;;;;;;;14.28;4.05;;;;;;;-0.15;75.26;99568.70;1697929;82;25817;-65
2021/04/06 06:27:47;;;;;;;11.83;3.60;;;;;;;-0.13;75.22;99565.59;1689684;83;25782;-67
2021/04/06 06:30:37;;;;;;;17.27;3.92;;;;;;;-0.08;75.28;99565.52;1657822;83;26131;-65
2021/04/06 06:33:27;;;;;;;15.50;3.35;;;;;;;0.01;75.30;99569.27;1670423;83;28961;-64
2021/04/06 06:36:06;;;;;;;15.18;3.52;;;;;;;0.05;75.31;99564.82;1670719;83;26026;-66
2021/04/06 06:38:40;;;;;;;11.08;2.65;;;;;;;0.09;74.78;99576.59;1670541;83;25820;-63
2021/04/06 06:41:18;;;;;;;13.48;2.77;;;;;;;0.12;74.94;99575.67;1667494;83;25842;-63
2021/04/06 06:43:55;;;;;;;28.98;5.75;;;;;;;0.14;74.74;99576.51;1662194;83;25931;-64
2021/04/06 06:46:28;;;;;;;35.25;9.78;;;;;;;0.20;74.89;99573.77;1659234;83;28251;-67
2021/04/06 06:49:04;;;;;;;23.15;6.03;;;;;;;0.20;74.67;99582.98;1667480;83;26556;-65
2021/04/06 06:51:39;;;;;;;42.23;7.80;;;;;;;0.24;74.69;99584.22;1666139;84;26411;-64
2021/04/06 06:54:08;;;;;;;23.15;5.10;;;;;;;0.27;74.33;99577.57;1682430;83;26113;-67
2021/04/06 06:56:42;;;;;;;24.63;5.90;;;;;;;0.33;74.49;99598.98;1676688;84;26007;-60
2021/04/06 06:59:10;;;;;;;29.40;7.92;;;;;;;0.33;74.54;99588.00;1691887;83;27495;-65
2021/04/06 07:01:38;;;;;;;42.08;10.05;;;;;;;0.40;74.61;99601.06;1663643;84;25968;-64
2021/04/06 07:04:14;;;;;;;13.58;4.17;;;;;;;0.35;74.68;99597.64;1661673;83;25955;-65
2021/04/06 07:06:45;;;;;;;36.60;9.48;;;;;;;0.44;74.79;99600.97;1669720;81;25875;-64
2021/04/06 07:09:30;;;;;;;22.82;8.75;;;;;;;0.51;74.81;99602.59;1680567;82;25866;-66
2021/04/06 07:12:03;;;;;;;17.90;6.20;;;;;;;0.57;74.79;99608.20;1691014;82;28477;-63
2021/04/06 07:14:33;;;;;;;65.55;8.65;;;;;;;0.56;74.82;99608.65;1666120;83;25846;-63
2021/04/06 07:17:08;;;;;;;15.45;4.95;;;;;;;0.59;74.87;99612.99;1711572;81;25871;-63
2021/04/06 07:19:44;;;;;;;19.82;5.75;;;;;;;0.62;74.84;99608.53;1714934;81;26129;-64
2021/04/06 07:22:18;;;;;;;30.10;7.58;;;;;;;0.63;74.71;99612.03;1706519;82;25807;-63
2021/04/06 07:24:51;;;;;;;18.02;4.92;;;;;;;0.70;74.77;99605.73;1669924;84;27985;-64
2021/04/06 07:27:24;;;;;;;25.32;6.20;;;;;;;0.74;74.57;99611.37;1692687;83;25814;-64
2021/04/06 07:29:55;;;;;;;11.68;3.90;;;;;;;0.77;74.68;99616.58;1709131;82;25864;-64
2021/04/06 07:32:24;;;;;;;16.85;3.95;;;;;;;0.79;74.53;99612.59;1713285;82;26794;-64
2021/04/06 07:34:53;;;;;;;17.27;4.53;;;;;;;0.85;74.65;99621.70;1682480;81;26008;-59
2021/04/06 07:37:21;;;;;;;14.68;4.55;;;;;;;0.89;73.90;99608.42;1677473;83;27664;-65
2021/04/06 07:39:54;;;;;;;26.95;6.40;;;;;;;0.92;74.40;99613.63;1708426;81;26031;-64
2021/04/06 07:42:18;;;;;;;23.22;6.15;;;;;;;0.95;74.24;99618.84;1697940;81;25919;-64
2021/04/06 07:44:47;;;;;;;17.23;4.55;;;;;;;1.03;74.39;99608.58;1704353;81;26088;-65
2021/04/06 07:47:20;;;;;;;25.52;5.12;;;;;;;1.17;74.35;99609.16;1682021;82;25954;-63
2021/04/06 07:49:50;;;;;;;23.20;5.83;;;;;;;1.23;74.03;99601.97;1695912;81;27822;-64
2021/04/06 07:52:19;;;;;;;19.52;7.10;;;;;;;1.30;74.05;99602.70;1711915;81;26525;-64
2021/04/06 07:54:49;;;;;;;31.50;9.90;;;;;;;1.43;74.03;99597.56;1678898;84;25790;-64
2021/04/06 07:57:19;;;;;;;33.55;9.83;;;;;;;1.47;73.54;99600.55;1701877;82;26603;-62
2021/04/06 07:59:52;;;;;;;23.42;6.37;;;;;;;1.48;72.93;99609.33;1704604;81;25822;-65
2021/04/06 08:02:24;;;;;;;28.25;7.28;;;;;;;1.43;72.90;99597.56;1701622;82;27667;-66
2021/04/06 08:04:59;;;;;;;20.35;6.78;;;;;;;1.39;72.07;99611.73;1721112;81;25917;-66
2021/04/06 08:07:35;;;;;;;24.98;5.90;;;;;;;1.36;72.52;99595.09;1726413;81;25885;-66
2021/04/06 08:10:26;;;;;;;24.72;5.30;;;;;;;1.50;73.00;99593.88;1680469;83;26482;-70
2021/04/06 08:12:54;;;;;;;16.02;3.33;;;;;;;1.63;72.15;99604.56;1673868;83;25949;-72
2021/04/06 08:15:22;;;;;;;24.75;4.10;;;;;;;1.57;71.42;99597.23;1679236;82;27862;-70
2021/04/06 08:17:58;;;;;;;29.25;5.80;;;;;;;1.53;71.56;99585.88;1659953;82;26147;-67
2021/04/06 08:20:37;;;;;;;20.70;5.12;;;;;;;1.59;71.41;99586.19;1713816;82;26042;-68
2021/04/06 08:23:16;;;;;;;11.95;3.17;;;;;;;1.68;71.80;99588.61;1718953;82;25920;-69
2021/04/06 08:25:49;;;;;;;21.95;5.50;;;;;;;1.81;71.65;99585.21;1664873;83;25822;-68
2021/04/06 08:28:27;;;;;;;31.27;6.17;;;;;;;1.88;71.12;99591.63;1698237;82;25896;-68
2021/04/06 08:31:19;;;;;;;44.15;9.33;;;;;;;1.97;71.25;99602.42;1697728;82;26154;-73
2021/04/06 08:33:48;;;;;;;25.62;7.28;;;;;;;2.10;71.13;99588.44;1698543;82;25958;-60
2021/04/06 08:36:28;;;;;;;30.12;7.83;;;;;;;2.21;70.96;99590.34;1710649;82;26669;-69
2021/04/06 08:38:57;;;;;;;18.73;5.53;;;;;;;2.27;71.00;99579.61;1704250;82;25734;-66
2021/04/06 08:41:33;;;;;;;17.80;4.30;;;;;;;2.41;70.55;99603.04;1700894;82;27649;-67
2021/04/06 08:44:05;;;;;;;17.42;4.00;;;;;;;2.39;70.60;99590.31;1691054;82;25916;-67
2021/04/06 08:46:46;;;;;;;30.85;6.15;;;;;;;2.42;70.46;99587.59;1667659;83;25817;-68
2021/04/06 08:49:25;;;;;;;20.52;5.00;;;;;;;2.56;70.77;99589.40;1693102;82;26010;-68
2021/04/06 08:51:57;;;;;;;16.02;3.65;;;;;;;2.68;70.26;99600.06;1693456;82;25852;-69
2021/04/06 08:54:34;;;;;;;;;;;;;;;2.69;70.23;99589.44;1704328;82;26182;-65
2021/04/06 08:57:06;;;;;;;20.62;4.65;;;;;;;2.78;69.96;99597.57;1672031;83;25912;-66
2021/04/06 08:59:42;;;;;;;31.62;8.00;;;;;;;2.79;69.14;99598.84;1673914;83;25882;-66
2021/04/06 09:02:18;;;;;;;11.75;3.90;;;;;;;2.78;69.19;99590.50;1667343;83;26186;-67
2021/04/06 09:04:52;;;;;;;19.12;5.00;;;;;;;2.80;68.66;99590.45;1667439;83;25896;-68
2021/04/06 09:07:27;;;;;;;21.37;5.37;;;;;;;2.85;69.24;99584.12;1694214;82;28509;-68
2021/04/06 09:10:02;;;;;;;18.02;5.22;;;;;;;2.97;69.21;99589.51;1716456;82;25868;-66
2021/04/06 09:12:32;;;;;;;15.50;4.20;;;;;;;3.10;69.21;99579.42;1677082;83;25800;-71
2021/04/06 09:15:04;;;;;;;13.95;3.98;;;;;;;3.14;68.69;99569.16;1664743;83;26108;-67
2021/04/06 09:17:36;;;;;;;9.28;3.83;;;;;;;3.21;68.91;99565.41;1654433;84;25808;-65
2021/04/06 09:20:13;;;;;;;17.87;5.28;;;;;;;3.42;68.90;99558.12;1670272;83;25939;-64
2021/04/06 09:22:50;;;;;;;20.48;5.45;;;;;;;3.57;68.23;99584.58;1638726;84;26640;-64
2021/04/06 09:25:25;;;;;;;17.00;3.80;;;;;;;3.52;67.62;99568.83;1645433;84;25921;-65
2021/04/06 09:28:00;;;;;;;12.18;2.67;;;;;;;3.58;67.94;99569.09;1686795;82;25850;-67
2021/04/06 09:30:40;;;;;;;12.93;4.03;;;;;;;3.72;68.08;99575.27;1687774;82;25869;-64
2021/04/06 09:33:11;;;;;;;32.83;7.65;;;;;;;3.80;68.05;99575.89;1692178;82;26371;-66
2021/04/06 09:35:40;;;;;;;15.95;4.97;;;;;;;3.86;67.50;99582.31;1704101;82;25677;-67
2021/04/06 09:38:08;;;;;;;18.37;4.47;;;;;;;3.83;67.35;99567.37;1668761;82;25901;-69
2021/04/06 09:40:40;;;;;;;12.95;3.72;;;;;;;3.79;66.37;99563.55;1691999;82;25977;-65
2021/04/06 09:43:08;;;;;;;23.27;7.80;;;;;;;3.70;66.50;99572.67;1711092;82;26501;-64
2021/04/06 09:45:38;;;;;;;18.95;6.28;;;;;;;3.70;66.54;99576.64;1655133;83;27863;-65
2021/04/06 09:48:15;;;;;;;19.77;4.22;;;;;;;3.84;66.63;99570.44;1652051;85;26269;-65
2021/04/06 09:51:02;;;;;;;41.85;10.13;;;;;;;3.96;66.84;99572.27;1651938;84;26360;-64
2021/04/06 09:53:30;;;;;;;19.67;4.42;;;;;;;4.05;66.40;99572.83;1649100;83;26915;-66
2021/04/06 09:56:00;;;;;;;21.07;5.22;;;;;;;4.04;65.72;99564.46;1690225;82;26586;-64
2021/04/06 09:58:28;;;;;;;10.25;2.92;;;;;;;4.06;64.45;99569.72;1668627;83;28495;-64
2021/04/06 10:00:56;;;;;;;13.53;3.20;;;;;;;3.99;65.02;99558.45;1647926;84;25802;-65
2021/04/06 10:03:24;;;;;;;24.87;6.65;;;;;;;3.92;64.82;99559.58;1634616;86;25796;-67
2021/04/06 10:06:06;;;;;;;15.15;3.98;;;;;;;3.91;64.62;99558.70;1638755;86;26762;-66
2021/04/06 10:08:35;;;;;;;17.32;3.42;;;;;;;3.97;63.75;99552.33;1616096;86;26576;-65
2021/04/06 10:11:05;;;;;;;18.60;3.42;;;;;;;4.13;63.18;99545.59;1611935;86;27831;-66
2021/04/06 10:13:35;;;;;;;14.15;2.65;;;;;;;4.31;62.81;99553.81;1620558;86;25910;-66
2021/04/06 10:16:13;;;;;;;13.48;3.27;;;;;;;4.38;63.23;99548.70;1651042;84;25959;-66
2021/04/06 10:18:45;;;;;;;18.65;3.98;;;;;;;4.42;63.17;99543.69;1656580;85;25920;-64
2021/04/06 10:21:21;;;;;;;14.33;2.30;;;;;;;4.43;62.48;99544.09;1675360;83;26481;-63
2021/04/06 10:23:50;;;;;;;24.90;4.35;;;;;;;4.58;62.71;99547.98;1650088;84;25955;-64
2021/04/06 10:26:23;;;;;;;8.85;2.55;;;;;;;4.45;60.73;99548.43;1676158;82;25874;-63
2021/04/06 10:29:14;;;;;;;12.45;2.05;;;;;;;4.44;60.47;99555.12;1623915;85;25937;-65
2021/04/06 10:31:51;;;;;;;11.75;2.75;;;;;;;4.35;61.28;99544.83;1618112;86;25904;-68
2021/04/06 10:34:19;;;;;;;25.68;4.80;;;;;;;4.28;60.52;99560.56;1656746;83;26553;-63
2021/04/06 10:37:08;;;;;;;26.10;5.00;;;;;;;4.27;59.95;99551.73;1618744;85;27881;-60
2021/04/06 10:39:40;;;;;;;14.03;3.37;;;;;;;4.30;59.83;99537.04;1680046;83;26473;-67
2021/04/06 10:42:12;;;;;;;13.10;2.83;;;;;;;4.48;59.50;99524.90;1660090;83;25937;-67
2021/04/06 10:44:41;;;;;;;;;;;;;;;4.44;56.81;99521.95;1657502;83;25903;-69
2021/04/06 10:47:28;;;;;;;11.48;2.40;;;;;;;4.47;59.81;99523.17;1653732;85;25774;-68
2021/04/06 10:49:59;;;;;;;9.43;2.40;;;;;;;4.52;59.98;99531.37;1652982;83;26762;-67
2021/04/06 10:52:34;;;;;;;7.65;2.20;;;;;;;4.57;59.55;99511.30;1650805;85;25797;-68
2021/04/06 10:55:06;;;;;;;15.00;2.87;;;;;;;4.57;59.70;99523.23;1644308;84;25934;-65
2021/04/06 10:57:38;;;;;;;18.10;4.97;;;;;;;4.70;59.99;99532.94;1652816;83;25826;-64
2021/04/06 11:00:25;;;;;;;10.03;3.70;;;;;;;4.76;59.20;99528.73;1655530;83;26035;-65
2021/04/06 11:03:17;;;;;;;12.53;2.37;;;;;;;4.79;58.78;99519.32;1638830;84;25864;-68
2021/04/06 11:05:46;;;;;;;7.62;2.33;;;;;;;4.87;58.26;99519.44;1686791;83;26128;-73
2021/04/06 11:08:25;;;;;;;12.05;3.72;;;;;;;4.94;58.79;99513.89;1676156;81;25947;-71
2021/04/06 11:10:56;;;;;;;18.15;4.05;;;;;;;5.07;57.32;99517.80;1692045;82;25835;-77
2021/04/06 11:13:27;;;;;;;27.05;6.72;;;;;;;5.02;58.03;99514.00;1660721;83;25856;-65
2021/04/06 11:15:55;;;;;;;13.98;3.00;;;;;;;5.04;56.76;99511.28;1692819;81;28302;-66
2021/04/06 11:18:24;;;;;;;13.25;2.87;;;;;;;5.07;57.05;99517.34;1646966;83;25799;-62
2021/04/06 11:20:52;;;;;;;7.97;1.77;;;;;;;5.10;57.15;99515.03;1651333;83;25886;-62
2021/04/06 11:23:20;;;;;;;12.37;2.80;;;;;;;5.14;55.85;99521.95;1695051;81;26180;-62
2021/04/06 11:25:47;;;;;;;23.40;4.33;;;;;;;5.13;54.99;99519.75;1657948;85;25826;-63
2021/04/06 11:28:17;;;;;;;11.63;2.75;;;;;;;5.21;55.63;99516.77;1647146;84;27568;-64
2021/04/06 11:30:44;;;;;;;15.32;2.83;;;;;;;5.43;54.24;99524.75;1651678;83;26339;-66
2021/04/06 11:33:12;;;;;;;26.85;4.85;;;;;;;5.40;54.64;99511.13;1634201;85;26047;-64
2021/04/06 11:35:41;;;;;;;80.20;9.58;;;;;;;5.39;53.62;99503.21;1633458;85;26637;-64
2021/04/06 11:38:09;;;;;;;9.28;2.80;;;;;;;5.27;53.07;99495.27;1691301;82;25992;-71
2021/04/06 11:40:37;;;;;;;18.12;3.00;;;;;;;5.20;53.17;99501.29;1703294;81;27786;-62
2021/04/06 11:43:06;;;;;;;15.85;3.27;;;;;;;5.28;53.21;99509.42;1688835;82;25831;-66
2021/04/06 11:45:34;;;;;;;10.08;2.58;;;;;;;5.38;54.31;99510.78;1697322;81;25809;-67
2021/04/06 11:48:04;;;;;;;27.75;3.40;;;;;;;5.63;54.61;99489.38;1718071;81;26679;-71
2021/04/06 11:50:32;;;;;;;15.57;2.60;;;;;;;5.86;54.37;99511.88;1696823;83;25894;-69
2021/04/06 11:53:00;;;;;;;17.98;2.52;;;;;;;5.83;53.34;99505.36;1686130;82;28558;-68
2021/04/06 11:55:28;;;;;;;21.07;2.40;;;;;;;5.82;50.09;99499.19;1687725;81;26020;-70
2021/04/06 11:57:56;;;;;;;17.65;2.67;;;;;;;5.84;52.01;99492.47;1678352;83;26528;-69
2021/04/06 12:00:26;;;;;;;11.55;2.62;;;;;;;5.94;52.34;99486.33;1681976;83;26094;-69